Time;durP1;ratioP1;P1;durP2;ratioP2;P2;SDS_P1;SDS_P2;PMS_P1;PMS_P2;Temp;Humidity;BMP_temperature;BMP_pressure;BME280_temperature;BME280_humidity;BME280_pressure;Samples;Min_cycle;Max_cycle;Signal;HPM_P1;HPM_P2
2023/09/27 04:01:59;;;;;;;;;;;13.80;99.90;;;;;;5235700;23;20368;-69
2023/09/27 04:04:24;;;;;;;;;;;13.80;99.90;;;;;;4973930;28;19909;-68
2023/09/27 04:06:50;;;;;;;;;;;13.80;99.90;;;;;;4975001;28;19952;-68
2023/09/27 04:09:16;;;;;;;;;;;13.70;99.90;;;;;;4975123;28;19914;-69
2023/09/27 04:11:41;;;;;;;;;;;14.20;99.90;;;;;;4974235;28;19985;-68
2023/09/27 04:14:07;;;;;;;;;;;14.30;99.90;;;;;;4975128;28;19913;-66
2023/09/27 04:16:32;;;;;;;;;;;14.30;99.90;;;;;;4974772;28;19953;-66
2023/09/27 04:18:58;;;;;;;;;;;14.20;99.90;;;;;;4974872;28;20368;-67
2023/09/27 04:21:25;;;;;;;;;;;14.10;99.90;;;;;;4974889;28;19959;-66
2023/09/27 04:23:56;;;;;;;;;;;14.10;99.90;;;;;;4974800;28;19910;-66
2023/09/27 04:26:23;;;;;;;;;;;14.10;99.90;;;;;;4974617;28;19906;-66
2023/09/27 04:28:49;;;;;;;;;;;14.50;99.90;;;;;;4974727;28;20381;-66
2023/09/27 04:31:15;;;;;;;;;;;14.50;99.90;;;;;;4974526;28;19910;-66
2023/09/27 04:33:44;;;;;;;;;;;14.60;99.90;;;;;;4978167;28;19913;-67
2023/09/27 04:36:15;;;;;;;;;;;14.60;99.90;;;;;;4978690;28;20276;-66
2023/09/27 04:38:41;;;;;;;;;;;14.50;99.90;;;;;;4978447;28;19929;-66
2023/09/27 04:41:06;;;;;;;;;;;14.40;99.90;;;;;;4978648;28;19997;-67
2023/09/27 04:43:32;;;;;;;;;;;14.30;99.90;;;;;;4978731;28;19941;-67
2023/09/27 04:45:57;;;;;;;;;;;14.30;99.90;;;;;;4978472;28;19957;-67
2023/09/27 04:48:23;;;;;;;;;;;14.30;99.90;;;;;;4978677;28;20001;-66
2023/09/27 04:50:48;;;;;;;;;;;14.20;99.90;;;;;;4978305;28;20001;-66
2023/09/27 04:53:14;;;;;;;;;;;14.20;99.90;;;;;;4978231;28;19941;-66
2023/09/27 04:55:39;;;;;;;;;;;14.20;99.90;;;;;;4971118;28;19910;-66
2023/09/27 04:58:06;;;;;;;;;;;14.20;99.90;;;;;;4965749;28;19918;-67
2023/09/27 05:00:31;;;;;;;;;;;14.10;99.90;;;;;;4962289;28;19914;-66
2023/09/27 05:02:56;;;;;;;;;;;14.10;99.90;;;;;;4966338;28;19960;-66
2023/09/27 05:05:22;;;;;;;;;;;13.90;99.90;;;;;;4977750;28;19956;-66
2023/09/27 05:07:48;;;;;;;;;;;13.80;99.90;;;;;;4977789;28;19910;-66
2023/09/27 05:10:13;;;;;;;;;;;13.80;99.90;;;;;;4977398;28;19910;-66
2023/09/27 05:12:39;;;;;;;;;;;13.90;99.90;;;;;;4977617;28;19913;-66
2023/09/27 05:15:06;;;;;;;;;;;13.80;99.90;;;;;;4974107;28;20026;-66
2023/09/27 05:17:31;;;;;;;;;;;13.80;99.90;;;;;;4967802;28;19925;-66
2023/09/27 05:19:57;;;;;;;;;;;13.60;99.90;;;;;;4968325;28;19910;-65
2023/09/27 05:22:23;;;;;;;;;;;13.50;99.90;;;;;;4966594;28;19906;-67
2023/09/27 05:24:49;;;;;;;;;;;13.70;99.90;;;;;;4964347;28;19920;-67
2023/09/27 05:27:14;;;;;;;;;;;13.60;99.90;;;;;;4963434;28;19926;-66
2023/09/27 05:29:40;;;;;;;;;;;13.40;99.90;;;;;;4971740;28;19917;-66
2023/09/27 05:32:05;;;;;;;;;;;13.40;99.90;;;;;;4969914;28;19906;-66
2023/09/27 05:34:31;;;;;;;;;;;13.50;99.90;;;;;;4971236;28;20304;-67
2023/09/27 05:36:59;;;;;;;;;;;13.40;99.90;;;;;;4972265;28;20423;-68
2023/09/27 05:39:25;;;;;;;;;;;13.40;99.90;;;;;;4964996;28;19934;-69
2023/09/27 05:41:51;;;;;;;;;;;13.30;99.90;;;;;;4958085;29;19906;-69
2023/09/27 05:44:16;;;;;;;;;;;13.40;99.90;;;;;;4956570;28;19906;-68
2023/09/27 05:46:43;;;;;;;;;;;13.40;99.90;;;;;;4958509;29;19906;-69
2023/09/27 05:49:10;;;;;;;;;;;13.40;99.90;;;;;;4957084;29;20002;-69
2023/09/27 05:51:36;;;;;;;;;;;13.40;99.90;;;;;;4957672;29;19906;-69
2023/09/27 05:54:02;;;;;;;;;;;13.40;99.90;;;;;;4956464;28;19907;-68
2023/09/27 05:56:28;;;;;;;;;;;13.40;99.90;;;;;;4975254;28;19910;-68
2023/09/27 05:58:54;;;;;;;;;;;13.50;99.90;;;;;;4976527;28;19906;-66
2023/09/27 06:01:19;;;;;;;;;;;13.50;99.90;;;;;;4977907;28;19941;-66
2023/09/27 06:03:48;;;;;;;;;;;13.50;99.90;;;;;;4976096;28;20352;-65
2023/09/27 06:06:13;;;;;;;;;;;13.50;99.90;;;;;;4976311;28;19937;-66
2023/09/27 06:08:39;;;;;;;;;;;13.60;99.90;;;;;;4976781;28;19990;-66
2023/09/27 06:11:04;;;;;;;;;;;13.60;99.90;;;;;;4979174;28;19913;-67
2023/09/27 06:13:30;;;;;;;;;;;13.60;99.90;;;;;;4979482;28;19914;-66
2023/09/27 06:15:58;;;;;;;;;;;13.70;99.90;;;;;;4978662;28;19910;-66
2023/09/27 06:18:26;;;;;;;;;;;13.60;99.90;;;;;;4978724;28;20348;-66
2023/09/27 06:20:52;;;;;;;;;;;13.60;99.90;;;;;;4978612;28;20075;-66
2023/09/27 06:23:19;;;;;;;;;;;13.70;99.90;;;;;;4978629;28;20328;-67
2023/09/27 06:25:46;;;;;;;;;;;13.70;99.90;;;;;;4978132;28;19906;-66
2023/09/27 06:28:14;;;;;;;;;;;13.70;99.90;;;;;;4977561;28;19906;-67
2023/09/27 06:30:40;;;;;;;;;;;13.70;99.90;;;;;;4978061;28;19916;-67
2023/09/27 06:33:06;;;;;;;;;;;13.70;99.90;;;;;;4975777;28;19906;-67
2023/09/27 06:35:32;;;;;;;;;;;13.80;99.90;;;;;;4976746;28;19906;-67
2023/09/27 06:38:00;;;;;;;;;;;13.80;99.90;;;;;;4976571;28;20327;-67
2023/09/27 06:40:26;;;;;;;;;;;13.80;99.90;;;;;;4976628;28;19906;-67
2023/09/27 06:42:51;;;;;;;;;;;13.90;99.90;;;;;;4976352;28;19980;-67
2023/09/27 06:45:17;;;;;;;;;;;13.90;99.90;;;;;;4976405;28;19907;-68
2023/09/27 06:47:46;;;;;;;;;;;13.90;99.90;;;;;;4975890;28;19906;-67
2023/09/27 06:50:19;;;;;;;;;;;14.00;99.90;;;;;;4976022;28;19909;-66
2023/09/27 06:52:45;;;;;;;;;;;14.00;99.90;;;;;;4976036;28;19945;-66
2023/09/27 06:55:11;;;;;;;;;;;14.10;99.90;;;;;;4975336;28;19917;-66
2023/09/27 06:57:38;;;;;;;;;;;14.20;99.90;;;;;;4975858;28;19913;-66
2023/09/27 07:00:18;;;;;;;;;;;14.20;99.90;;;;;;4975858;28;19921;-66
2023/09/27 07:02:47;;;;;;;;;;;14.30;99.90;;;;;;4975822;28;19921;-66
2023/09/27 07:05:14;;;;;;;;;;;14.30;99.90;;;;;;4975482;28;19913;-67
2023/09/27 07:07:40;;;;;;;;;;;14.40;99.90;;;;;;4974222;28;20253;-67
2023/09/27 07:10:06;;;;;;;;;;;14.40;99.90;;;;;;4975325;28;20256;-67
2023/09/27 07:12:33;;;;;;;;;;;14.50;99.90;;;;;;4973769;28;19913;-66
2023/09/27 07:14:59;;;;;;;;;;;14.60;99.90;;;;;;4975198;28;19906;-66
2023/09/27 07:17:25;;;;;;;;;;;14.60;99.90;;;;;;4975587;28;19975;-66
2023/09/27 07:19:51;;;;;;;;;;;14.70;99.90;;;;;;4975411;28;19961;-66
2023/09/27 07:22:17;;;;;;;;;;;14.70;99.90;;;;;;4975158;28;19949;-67
2023/09/27 07:24:43;;;;;;;;;;;14.80;99.90;;;;;;4975304;28;19906;-68
2023/09/27 07:27:08;;;;;;;;;;;14.90;99.90;;;;;;4975371;28;19906;-67
2023/09/27 07:29:34;;;;;;;;;;;15.00;99.90;;;;;;4974891;28;20287;-68
2023/09/27 07:31:59;;;;;;;;;;;15.00;99.90;;;;;;4973746;28;19960;-65
2023/09/27 07:34:25;;;;;;;;;;;15.10;99.90;;;;;;4973765;28;19906;-66
2023/09/27 07:36:51;;;;;;;;;;;15.20;99.90;;;;;;4975100;28;19919;-67
2023/09/27 07:39:17;;;;;;;;;;;15.30;99.90;;;;;;4975193;28;19906;-67
2023/09/27 07:41:44;;;;;;;;;;;15.40;99.90;;;;;;4975046;28;19917;-67
2023/09/27 07:44:10;;;;;;;;;;;15.50;99.90;;;;;;4975575;28;19906;-67
2023/09/27 07:46:35;;;;;;;;;;;15.50;99.90;;;;;;4975777;28;19913;-67
2023/09/27 07:49:01;;;;;;;;;;;15.60;99.90;;;;;;4975693;28;19922;-67
2023/09/27 07:51:27;;;;;;;;;;;15.70;99.90;;;;;;4975355;28;19992;-67
2023/09/27 07:53:53;;;;;;;;;;;15.80;99.90;;;;;;4975467;28;20352;-67
2023/09/27 07:56:23;;;;;;;;;;;15.80;99.90;;;;;;4975811;28;19906;-67
2023/09/27 07:58:51;;;;;;;;;;;15.90;99.90;;;;;;4975212;28;19985;-67
2023/09/27 08:01:23;;;;;;;;;;;16.10;99.90;;;;;;4974789;28;19960;-67
2023/09/27 08:03:51;;;;;;;;;;;16.10;99.90;;;;;;4973715;28;20360;-66
2023/09/27 08:06:17;;;;;;;;;;;16.20;99.90;;;;;;4974193;28;19993;-66
2023/09/27 08:08:43;;;;;;;;;;;16.30;99.90;;;;;;4974396;28;19984;-67
2023/09/27 08:11:11;;;;;;;;;;;16.30;99.90;;;;;;4974969;28;19907;-66
2023/09/27 08:13:37;;;;;;;;;;;16.40;99.90;;;;;;4975001;28;19961;-66
2023/09/27 08:16:06;;;;;;;;;;;16.50;99.90;;;;;;4974734;28;20307;-66
2023/09/27 08:18:32;;;;;;;;;;;16.50;99.90;;;;;;4974928;28;20476;-66
2023/09/27 08:20:58;;;;;;;;;;;16.60;99.90;;;;;;4974562;28;19959;-67
2023/09/27 08:23:24;;;;;;;;;;;16.80;99.90;;;;;;4973498;28;20048;-67
2023/09/27 08:25:50;;;;;;;;;;;16.80;99.90;;;;;;4973168;28;20093;-67
2023/09/27 08:28:16;;;;;;;;;;;17.00;99.90;;;;;;4974465;28;19906;-67
2023/09/27 08:30:41;;;;;;;;;;;17.00;99.90;;;;;;4974398;28;19913;-67
2023/09/27 08:33:07;;;;;;;;;;;17.10;99.90;;;;;;4974368;28;19910;-67
2023/09/27 08:35:33;;;;;;;;;;;17.30;99.90;;;;;;4974599;28;19910;-67
2023/09/27 08:37:59;;;;;;;;;;;17.30;99.90;;;;;;4974484;28;20024;-67
2023/09/27 08:40:24;;;;;;;;;;;17.40;99.90;;;;;;4974404;28;19949;-67
2023/09/27 08:42:54;;;;;;;;;;;17.50;99.90;;;;;;4974658;28;20004;-67
2023/09/27 08:45:22;;;;;;;;;;;17.60;99.90;;;;;;4974701;28;20076;-67
2023/09/27 08:47:48;;;;;;;;;;;17.90;99.90;;;;;;4974770;28;19913;-66
2023/09/27 08:50:14;;;;;;;;;;;18.00;99.90;;;;;;4974318;28;19910;-66
2023/09/27 08:52:47;;;;;;;;;;;18.10;99.90;;;;;;4974447;28;19910;-67
2023/09/27 08:55:15;;;;;;;;;;;18.40;99.90;;;;;;4974897;28;19906;-66
2023/09/27 08:57:48;;;;;;;;;;;19.90;99.90;;;;;;4972931;28;19910;-66
2023/09/27 09:00:19;;;;;;;;;;;23.20;99.90;;;;;;4974169;28;19906;-67
2023/09/27 09:02:47;;;;;;;;;;;26.00;98.60;;;;;;4973011;28;19910;-67
2023/09/27 09:05:13;;;;;;;;;;;27.70;95.50;;;;;;4974096;28;19906;-67
2023/09/27 09:07:41;;;;;;;;;;;29.20;93.20;;;;;;4974516;28;20304;-67
2023/09/27 09:10:11;;;;;;;;;;;30.90;91.30;;;;;;4974134;28;19949;-67
2023/09/27 09:12:38;;;;;;;;;;;31.70;88.00;;;;;;4974390;28;19906;-67
2023/09/27 09:15:05;;;;;;;;;;;31.70;85.10;;;;;;4974536;28;19914;-66
2023/09/27 09:17:34;;;;;;;;;;;30.90;85.50;;;;;;4975562;28;19917;-66
2023/09/27 09:20:23;;;;;;;;;;;30.10;86.70;;;;;;4978502;28;19913;-67
2023/09/27 09:22:53;;;;;;;;;;;30.30;87.00;;;;;;4978952;28;19989;-67
2023/09/27 09:25:19;;;;;;;;;;;30.50;85.90;;;;;;4979289;28;20287;-67
2023/09/27 09:28:00;;;;;;;;;;;29.20;87.40;;;;;;4978225;28;20001;-67
2023/09/27 09:30:38;;;;;;;;;;;28.40;88.70;;;;;;4977981;28;19957;-67
2023/09/27 09:33:15;;;;;;;;;;;27.60;90.10;;;;;;4979259;28;20016;-67
2023/09/27 09:35:40;;;;;;;;;;;26.60;91.50;;;;;;4979034;28;19910;-68
2023/09/27 09:38:06;;;;;;;;;;;24.90;93.40;;;;;;4978514;28;19906;-67
2023/09/27 09:40:32;;;;;;;;;;;24.50;94.00;;;;;;4977895;28;19906;-67
2023/09/27 09:42:59;;;;;;;;;;;24.30;94.70;;;;;;4977898;28;19906;-67
2023/09/27 09:45:24;;;;;;;;;;;24.30;95.00;;;;;;4977780;28;20287;-67
2023/09/27 09:47:51;;;;;;;;;;;25.60;94.00;;;;;;4977671;28;19914;-66
2023/09/27 09:50:17;;;;;;;;;;;27.60;92.30;;;;;;4977238;28;20276;-67
2023/09/27 09:52:48;;;;;;;;;;;30.00;90.40;;;;;;4977159;28;19910;-67
2023/09/27 09:55:19;;;;;;;;;;;32.10;86.10;;;;;;4977512;28;19956;-67
2023/09/27 09:57:45;;;;;;;;;;;33.70;81.90;;;;;;4977510;28;20000;-67
2023/09/27 10:00:17;;;;;;;;;;;34.80;79.40;;;;;;4977619;28;19925;-67
2023/09/27 10:02:50;;;;;;;;;;;35.20;77.60;;;;;;4977051;28;19932;-65
2023/09/27 10:05:18;;;;;;;;;;;34.60;76.80;;;;;;4977476;28;19953;-67
2023/09/27 10:07:45;;;;;;;;;;;33.80;76.80;;;;;;4977070;28;20277;-66
2023/09/27 10:10:13;;;;;;;;;;;34.50;76.20;;;;;;4976519;28;19914;-66
2023/09/27 10:12:40;;;;;;;;;;;35.90;74.00;;;;;;4999136;23;19937;-73
2023/09/27 10:15:07;;;;;;;;;;;36.00;72.80;;;;;;4976521;28;20009;-73
2023/09/27 10:17:33;;;;;;;;;;;36.20;72.80;;;;;;4976316;28;19913;-74
2023/09/27 10:20:12;;;;;;;;;;;37.10;71.30;;;;;;4975679;28;19905;-73
2023/09/27 10:22:38;;;;;;;;;;;37.50;69.80;;;;;;4976938;28;19989;-73
2023/09/27 10:25:03;;;;;;;;;;;38.20;68.70;;;;;;4976028;28;19965;-74
2023/09/27 10:28:12;;;;;;;;;;;38.40;68.10;;;;;;4976559;28;19906;-73
2023/09/27 10:30:40;;;;;;;;;;;38.90;67.00;;;;;;4975572;28;20342;-74
2023/09/27 10:33:14;;;;;;;;;;;38.80;66.30;;;;;;4976538;28;19914;-74
2023/09/27 10:35:44;;;;;;;;;;;38.80;66.20;;;;;;4975080;28;19928;-74
2023/09/27 10:38:10;;;;;;;;;;;38.10;66.80;;;;;;4976511;28;19914;-73
2023/09/27 10:40:40;;;;;;;;;;;38.10;66.30;;;;;;4974960;28;19980;-73
2023/09/27 10:43:06;;;;;;;;;;;37.50;67.30;;;;;;4975129;28;19910;-73
2023/09/27 10:45:32;;;;;;;;;;;36.00;68.50;;;;;;4975004;28;19962;-74
2023/09/27 10:48:14;;;;;;;;;;;36.70;68.20;;;;;;4974870;28;19906;-74
2023/09/27 10:50:39;;;;;;;;;;;36.40;67.70;;;;;;4976458;28;19910;-73
2023/09/27 10:53:05;;;;;;;;;;;36.60;68.00;;;;;;4975898;28;19914;-74
2023/09/27 10:55:38;;;;;;;;;;;37.30;67.50;;;;;;4975953;28;20399;-73
2023/09/27 10:58:04;;;;;;;;;;;37.20;66.80;;;;;;4974658;28;19910;-74
2023/09/27 11:00:29;;;;;;;;;;;34.60;68.90;;;;;;4974586;28;20278;-74
2023/09/27 11:02:55;;;;;;;;;;;32.40;72.40;;;;;;4975184;28;20005;-73
2023/09/27 11:05:24;;;;;;;;;;;30.20;76.70;;;;;;4976635;28;19906;-74
2023/09/27 11:07:50;;;;;;;;;;;28.60;80.50;;;;;;4975031;28;19906;-73
2023/09/27 11:10:17;;;;;;;;;;;27.60;83.10;;;;;;4976009;28;19910;-74
2023/09/27 11:12:43;;;;;;;;;;;26.60;85.20;;;;;;4974289;28;20381;-76
2023/09/27 11:15:10;;;;;;;;;;;25.80;88.00;;;;;;4974781;28;19910;-76
2023/09/27 11:17:36;;;;;;;;;;;25.60;89.40;;;;;;4974364;28;19910;-75
2023/09/27 11:20:10;;;;;;;;;;;25.20;90.50;;;;;;4975419;28;19932;-73
2023/09/27 11:22:35;;;;;;;;;;;24.90;91.10;;;;;;4974136;28;19906;-73
2023/09/27 11:25:01;;;;;;;;;;;24.70;91.70;;;;;;4973987;28;19905;-73
2023/09/27 11:27:26;;;;;;;;;;;24.60;92.30;;;;;;4975360;28;19912;-73
2023/09/27 11:29:52;;;;;;;;;;;24.40;92.90;;;;;;4974179;28;19986;-73
2023/09/27 11:32:18;;;;;;;;;;;24.30;93.10;;;;;;4974480;28;19913;-74
2023/09/27 11:34:52;;;;;;;;;;;24.20;93.60;;;;;;4974747;28;19910;-74
2023/09/27 11:37:18;;;;;;;;;;;24.20;93.90;;;;;;4974257;28;20404;-74
2023/09/27 11:39:47;;;;;;;;;;;23.90;94.50;;;;;;4975591;28;19957;-73
2023/09/27 11:42:12;;;;;;;;;;;23.90;94.80;;;;;;4974163;28;19906;-73
2023/09/27 11:44:38;;;;;;;;;;;23.80;95.10;;;;;;4973994;28;20324;-73
2023/09/27 11:47:07;;;;;;;;;;;23.80;95.10;;;;;;4974416;28;20295;-74
2023/09/27 11:49:33;;;;;;;;;;;23.80;95.30;;;;;;4974008;28;19913;-73
2023/09/27 11:51:59;;;;;;;;;;;23.80;95.70;;;;;;4974714;28;19906;-72
2023/09/27 11:54:25;;;;;;;;;;;24.00;95.80;;;;;;4975583;28;19906;-73
2023/09/27 11:56:53;;;;;;;;;;;24.20;95.80;;;;;;4978773;28;19929;-72
2023/09/27 11:59:18;;;;;;;;;;;24.40;95.70;;;;;;4975947;28;20280;-73
2023/09/27 12:01:44;;;;;;;;;;;24.60;95.50;;;;;;4975584;28;19913;-73
2023/09/27 12:04:09;;;;;;;;;;;24.60;95.30;;;;;;4973747;28;20001;-73
2023/09/27 12:06:35;;;;;;;;;;;24.60;95.40;;;;;;4974129;28;20447;-75
2023/09/27 12:09:02;;;;;;;;;;;24.80;95.50;;;;;;4976828;28;19906;-73
2023/09/27 12:11:27;;;;;;;;;;;24.90;95.50;;;;;;4976162;28;20108;-74
2023/09/27 12:13:53;;;;;;;;;;;24.90;95.30;;;;;;4976759;28;19969;-74
2023/09/27 12:16:20;;;;;;;;;;;24.80;95.50;;;;;;4974237;28;19933;-74
2023/09/27 12:18:46;;;;;;;;;;;24.90;95.60;;;;;;4975276;28;19933;-73
2023/09/27 12:21:13;;;;;;;;;;;24.90;95.60;;;;;;4973155;28;20001;-74
2023/09/27 12:23:38;;;;;;;;;;;24.90;95.60;;;;;;4973414;28;20368;-73
2023/09/27 12:26:04;;;;;;;;;;;24.90;95.60;;;;;;4973877;28;19913;-73
2023/09/27 12:28:29;;;;;;;;;;;24.80;95.80;;;;;;4973733;28;19906;-74
2023/09/27 12:30:55;;;;;;;;;;;24.60;96.00;;;;;;4975371;28;20422;-73
2023/09/27 12:33:20;;;;;;;;;;;24.40;96.30;;;;;;4974073;28;19906;-73
2023/09/27 12:35:49;;;;;;;;;;;24.50;96.40;;;;;;4975519;28;20004;-72
2023/09/27 12:38:15;;;;;;;;;;;24.60;96.20;;;;;;4973925;28;19906;-73
2023/09/27 12:40:41;;;;;;;;;;;24.70;96.30;;;;;;4973453;28;19906;-73
2023/09/27 12:43:07;;;;;;;;;;;24.70;96.20;;;;;;4973595;28;19954;-74
2023/09/27 12:45:33;;;;;;;;;;;24.50;96.20;;;;;;4975574;28;19906;-73
2023/09/27 12:47:58;;;;;;;;;;;24.50;96.30;;;;;;4974978;28;20391;-74
2023/09/27 12:50:26;;;;;;;;;;;24.40;96.30;;;;;;4973554;28;19913;-74
2023/09/27 12:52:55;;;;;;;;;;;24.40;96.20;;;;;;4974856;28;19906;-75
2023/09/27 12:55:20;;;;;;;;;;;24.50;96.40;;;;;;4978410;28;19906;-74
2023/09/27 12:57:46;;;;;;;;;;;24.50;96.20;;;;;;4977731;28;20012;-74
2023/09/27 13:00:12;;;;;;;;;;;24.60;96.20;;;;;;4969770;28;20391;-71
2023/09/27 13:02:38;;;;;;;;;;;24.60;95.60;;;;;;4977593;28;19906;-72
2023/09/27 13:05:03;;;;;;;;;;;24.60;95.70;;;;;;4963076;28;19913;-71
2023/09/27 13:07:29;;;;;;;;;;;24.60;95.70;;;;;;4971107;28;20365;-72
2023/09/27 13:09:54;;;;;;;;;;;24.70;95.80;;;;;;4975271;28;19906;-72
2023/09/27 13:12:20;;;;;;;;;;;24.90;95.50;;;;;;4982791;28;19909;-72
2023/09/27 13:14:45;;;;;;;;;;;24.90;95.20;;;;;;4977286;28;19922;-72
2023/09/27 13:17:11;;;;;;;;;;;24.90;94.90;;;;;;4976904;28;19906;-72
2023/09/27 13:19:37;;;;;;;;;;;24.90;95.00;;;;;;4968139;28;19914;-72
2023/09/27 13:22:02;;;;;;;;;;;25.00;94.80;;;;;;4973405;28;19973;-72
2023/09/27 13:24:28;;;;;;;;;;;24.90;94.80;;;;;;4976299;28;19974;-71
2023/09/27 13:26:54;;;;;;;;;;;25.00;94.20;;;;;;4971561;28;19918;-71
2023/09/27 13:29:19;;;;;;;;;;;25.10;92.70;;;;;;4965157;28;19920;-72
2023/09/27 13:31:45;;;;;;;;;;;25.10;92.80;;;;;;4967116;28;19906;-71
2023/09/27 13:34:11;;;;;;;;;;;25.20;92.80;;;;;;4968554;28;19911;-73
2023/09/27 13:36:38;;;;;;;;;;;25.30;92.50;;;;;;4959265;28;19965;-73
2023/09/27 13:39:05;;;;;;;;;;;25.30;92.30;;;;;;4957961;28;19910;-70
2023/09/27 13:41:41;;;;;;;;;;;25.30;91.80;;;;;;4962570;28;19910;-71
2023/09/27 13:44:07;;;;;;;;;;;25.20;92.00;;;;;;4976091;28;19957;-73
2023/09/27 13:46:32;;;;;;;;;;;25.20;91.80;;;;;;4976990;28;19910;-72
2023/09/27 13:48:58;;;;;;;;;;;25.10;92.10;;;;;;4978225;28;19906;-74
2023/09/27 13:51:23;;;;;;;;;;;25.20;91.40;;;;;;4976750;28;19906;-74
2023/09/27 13:53:49;;;;;;;;;;;25.20;91.10;;;;;;4976778;28;19906;-72
2023/09/27 13:56:14;;;;;;;;;;;25.20;91.30;;;;;;4976703;28;19913;-73
2023/09/27 13:58:41;;;;;;;;;;;25.30;91.40;;;;;;4976170;28;19917;-72
2023/09/27 14:01:07;;;;;;;;;;;25.30;91.60;;;;;;4976245;28;19996;-73
2023/09/27 14:03:32;;;;;;;;;;;25.50;91.40;;;;;;4976452;28;19996;-72
2023/09/27 14:05:58;;;;;;;;;;;25.70;90.30;;;;;;4976052;28;19974;-71
2023/09/27 14:08:23;;;;;;;;;;;26.00;89.90;;;;;;4978471;28;19956;-72
2023/09/27 14:10:49;;;;;;;;;;;26.40;89.50;;;;;;4976708;28;19910;-71
2023/09/27 14:13:15;;;;;;;;;;;26.50;89.50;;;;;;4977622;28;20016;-71
2023/09/27 14:15:40;;;;;;;;;;;26.30;89.20;;;;;;4976138;28;19964;-72
2023/09/27 14:18:06;;;;;;;;;;;26.20;89.70;;;;;;4975316;28;19910;-73
2023/09/27 14:20:31;;;;;;;;;;;25.90;89.50;;;;;;4976835;28;19914;-73
2023/09/27 14:22:57;;;;;;;;;;;25.80;90.00;;;;;;4975314;28;20352;-72
2023/09/27 14:25:24;;;;;;;;;;;25.70;90.00;;;;;;4976013;28;19906;-73
2023/09/27 14:27:50;;;;;;;;;;;25.70;89.50;;;;;;4975496;28;19906;-72
2023/09/27 14:30:15;;;;;;;;;;;25.60;89.50;;;;;;4974653;28;20005;-71
2023/09/27 14:32:42;;;;;;;;;;;25.50;89.30;;;;;;4975435;28;19913;-69
2023/09/27 14:35:10;;;;;;;;;;;25.40;90.10;;;;;;4975939;28;19922;-70
2023/09/27 14:37:36;;;;;;;;;;;25.30;90.40;;;;;;4975512;28;20383;-71
2023/09/27 14:40:03;;;;;;;;;;;25.30;90.50;;;;;;4976349;28;19910;-71
2023/09/27 14:42:29;;;;;;;;;;;25.20;89.90;;;;;;4975401;28;19913;-71
2023/09/27 14:44:57;;;;;;;;;;;25.10;89.70;;;;;;4975015;28;19984;-69
2023/09/27 14:47:25;;;;;;;;;;;25.10;89.60;;;;;;4976240;28;20288;-71
2023/09/27 14:49:56;;;;;;;;;;;25.10;89.70;;;;;;4975424;28;20289;-69
2023/09/27 14:52:22;;;;;;;;;;;25.00;90.00;;;;;;4976145;28;19906;-70
2023/09/27 14:54:48;;;;;;;;;;;25.00;89.80;;;;;;4976227;28;19917;-69
2023/09/27 14:57:15;;;;;;;;;;;25.10;90.20;;;;;;4974377;28;20281;-69
2023/09/27 14:59:41;;;;;;;;;;;25.00;90.20;;;;;;4975208;28;19910;-69
2023/09/27 15:02:06;;;;;;;;;;;25.00;90.30;;;;;;4975165;28;19918;-69
2023/09/27 15:04:32;;;;;;;;;;;25.00;90.00;;;;;;4974520;28;19906;-69
2023/09/27 15:06:58;;;;;;;;;;;25.00;89.80;;;;;;4975365;28;19906;-69
2023/09/27 15:09:23;;;;;;;;;;;24.90;90.10;;;;;;4975962;28;19928;-68
2023/09/27 15:11:49;;;;;;;;;;;24.90;90.20;;;;;;4974497;28;20357;-69
2023/09/27 15:14:14;;;;;;;;;;;24.90;90.00;;;;;;4974150;28;19921;-68
2023/09/27 15:16:40;;;;;;;;;;;24.80;90.60;;;;;;4975807;28;19906;-67
2023/09/27 15:19:05;;;;;;;;;;;24.70;90.40;;;;;;4975525;28;20001;-68
2023/09/27 15:21:30;;;;;;;;;;;24.80;90.00;;;;;;4976714;28;19941;-66
2023/09/27 15:23:56;;;;;;;;;;;24.80;89.70;;;;;;4973285;28;19960;-70
2023/09/27 15:26:22;;;;;;;;;;;24.70;90.10;;;;;;4966691;28;19906;-68
2023/09/27 15:28:47;;;;;;;;;;;24.70;90.10;;;;;;4964358;28;19916;-68
2023/09/27 15:31:14;;;;;;;;;;;24.60;90.30;;;;;;4965461;28;19906;-70
2023/09/27 15:33:39;;;;;;;;;;;24.60;90.30;;;;;;4974119;28;19948;-70
2023/09/27 15:36:05;;;;;;;;;;;24.60;90.30;;;;;;4975174;28;19906;-68
2023/09/27 15:38:30;;;;;;;;;;;24.50;90.20;;;;;;4974760;28;19912;-68
2023/09/27 15:40:56;;;;;;;;;;;24.50;90.30;;;;;;4975887;28;20233;-69
2023/09/27 15:43:21;;;;;;;;;;;24.50;90.20;;;;;;4975393;28;19910;-69
2023/09/27 15:45:56;;;;;;;;;;;24.40;90.50;;;;;;4975330;28;19906;-69
2023/09/27 15:48:22;;;;;;;;;;;24.40;90.50;;;;;;4973383;28;19906;-70
2023/09/27 15:50:48;;;;;;;;;;;24.40;90.50;;;;;;4974327;28;19906;-70
2023/09/27 15:53:14;;;;;;;;;;;24.30;90.40;;;;;;4974528;28;19907;-69
2023/09/27 15:55:40;;;;;;;;;;;24.30;90.40;;;;;;4974136;28;19906;-70
2023/09/27 15:58:06;;;;;;;;;;;24.40;90.30;;;;;;4974149;28;19917;-70
2023/09/27 16:00:31;;;;;;;;;;;24.30;90.10;;;;;;4974860;28;19910;-70
2023/09/27 16:02:57;;;;;;;;;;;24.30;90.20;;;;;;4973466;28;19917;-70
2023/09/27 16:05:22;;;;;;;;;;;24.30;90.30;;;;;;4975572;28;19913;-70
2023/09/27 16:07:48;;;;;;;;;;;24.30;90.50;;;;;;4974004;28;19913;-70
2023/09/27 16:10:13;;;;;;;;;;;24.20;90.50;;;;;;4975110;28;19906;-68
2023/09/27 16:12:40;;;;;;;;;;;24.20;90.40;;;;;;4973504;28;19910;-70
2023/09/27 16:15:06;;;;;;;;;;;24.20;90.40;;;;;;5010378;23;20406;-68
2023/09/27 16:17:32;;;;;;;;;;;24.10;90.50;;;;;;4994870;28;19905;-68
2023/09/27 16:19:57;;;;;;;;;;;24.00;90.50;;;;;;4994166;28;19921;-68
2023/09/27 16:22:23;;;;;;;;;;;23.90;90.80;;;;;;5002048;28;19929;-69
2023/09/27 16:24:48;;;;;;;;;;;23.80;91.00;;;;;;4989314;28;19910;-68
2023/09/27 16:27:13;;;;;;;;;;;23.90;90.90;;;;;;4978910;28;20356;-70
2023/09/27 16:29:39;;;;;;;;;;;23.80;90.90;;;;;;4980837;28;19988;-68
2023/09/27 16:32:04;;;;;;;;;;;23.80;91.00;;;;;;4979923;28;19969;-68
2023/09/27 16:34:30;;;;;;;;;;;23.70;91.00;;;;;;4978836;28;19906;-68
2023/09/27 16:36:57;;;;;;;;;;;23.60;91.00;;;;;;4978743;28;19906;-68
2023/09/27 16:39:23;;;;;;;;;;;23.50;91.00;;;;;;4978704;28;20287;-68
2023/09/27 16:41:49;;;;;;;;;;;23.50;91.10;;;;;;4977317;28;20000;-68
2023/09/27 16:44:14;;;;;;;;;;;23.40;91.30;;;;;;4976779;28;20375;-67
2023/09/27 16:46:40;;;;;;;;;;;23.30;91.40;;;;;;4977236;28;19906;-68
2023/09/27 16:49:05;;;;;;;;;;;23.20;91.80;;;;;;4978617;28;19906;-68
2023/09/27 16:51:31;;;;;;;;;;;23.00;92.30;;;;;;4978685;28;19936;-67
2023/09/27 16:53:56;;;;;;;;;;;22.90;92.70;;;;;;4978506;28;19960;-68
2023/09/27 16:56:22;;;;;;;;;;;22.70;93.00;;;;;;4978201;28;19910;-68
2023/09/27 16:58:48;;;;;;;;;;;22.60;93.50;;;;;;4977897;28;19919;-68
2023/09/27 17:01:17;;;;;;;;;;;22.40;93.70;;;;;;4977829;28;20383;-68
2023/09/27 17:03:43;;;;;;;;;;;22.30;93.90;;;;;;4976594;28;19941;-68
2023/09/27 17:06:08;;;;;;;;;;;22.20;94.30;;;;;;4977846;28;20328;-69
2023/09/27 17:08:34;;;;;;;;;;;22.10;94.50;;;;;;4976542;28;19910;-69
2023/09/27 17:11:00;;;;;;;;;;;22.00;94.70;;;;;;4977608;28;19906;-68
2023/09/27 17:13:25;;;;;;;;;;;21.80;94.70;;;;;;4977755;28;19906;-68
2023/09/27 17:15:51;;;;;;;;;;;21.80;95.10;;;;;;4977247;28;20345;-68
2023/09/27 17:18:16;;;;;;;;;;;21.70;95.30;;;;;;4977547;28;19906;-68
2023/09/27 17:20:42;;;;;;;;;;;21.50;95.30;;;;;;4977631;28;20004;-67
2023/09/27 17:23:07;;;;;;;;;;;21.50;95.70;;;;;;4977432;28;20376;-68
2023/09/27 17:25:33;;;;;;;;;;;21.40;95.90;;;;;;4976251;28;20329;-68
2023/09/27 17:27:58;;;;;;;;;;;21.30;96.00;;;;;;4976173;28;19906;-70
2023/09/27 17:30:24;;;;;;;;;;;21.30;96.20;;;;;;4977240;28;20388;-70
2023/09/27 17:32:50;;;;;;;;;;;21.20;96.40;;;;;;4977595;28;20276;-70
2023/09/27 17:35:15;;;;;;;;;;;21.20;96.50;;;;;;4977514;28;19913;-70
2023/09/27 17:37:41;;;;;;;;;;;21.10;96.70;;;;;;4976013;28;20380;-72
2023/09/27 17:40:07;;;;;;;;;;;21.00;96.80;;;;;;4977319;28;20349;-71
2023/09/27 17:42:34;;;;;;;;;;;21.00;97.00;;;;;;4976607;28;19906;-71
2023/09/27 17:45:00;;;;;;;;;;;20.90;97.30;;;;;;4976799;28;19956;-69
2023/09/27 17:47:25;;;;;;;;;;;20.90;97.50;;;;;;4975596;28;19906;-68
2023/09/27 17:49:51;;;;;;;;;;;20.80;97.70;;;;;;4977046;28;20372;-67
2023/09/27 17:52:16;;;;;;;;;;;20.80;97.90;;;;;;4975577;28;19910;-67
2023/09/27 17:54:42;;;;;;;;;;;20.70;98.00;;;;;;4976580;28;19910;-69
2023/09/27 17:57:08;;;;;;;;;;;20.70;97.90;;;;;;4975253;28;19913;-68
2023/09/27 17:59:33;;;;;;;;;;;20.60;98.10;;;;;;4976101;28;19917;-68
2023/09/27 18:01:59;;;;;;;;;;;20.60;98.30;;;;;;4975522;28;20041;-68
2023/09/27 18:04:26;;;;;;;;;;;20.60;98.90;;;;;;4977283;28;19912;-67
2023/09/27 18:06:52;;;;;;;;;;;20.50;98.90;;;;;;4977277;28;20343;-68
2023/09/27 18:09:18;;;;;;;;;;;20.40;99.10;;;;;;4977045;28;19906;-69
2023/09/27 18:11:43;;;;;;;;;;;20.40;99.20;;;;;;4975611;28;19906;-69
2023/09/27 18:14:08;;;;;;;;;;;20.40;99.50;;;;;;4976906;28;19964;-69